Time;durP1;ratioP1;P1;durP2;ratioP2;P2;SDS_P1;SDS_P2;PMS_P1;PMS_P2;Temp;Humidity;BMP_temperature;BMP_pressure;BME280_temperature;BME280_humidity;BME280_pressure;Samples;Min_cycle;Max_cycle;Signal;HPM_P1;HPM_P2
2022/10/14 00:01:42;;;;;;;8.17;6.30;;;;;;;;;;4972216;28;20513;-67
2022/10/14 00:04:08;;;;;;;7.23;6.30;;;;;;;;;;4971469;28;20434;-67
2022/10/14 00:06:34;;;;;;;5.10;4.90;;;;;;;;;;4971831;28;20965;-67
2022/10/14 00:09:01;;;;;;;9.33;5.87;;;;;;;;;;4972611;28;20500;-68
2022/10/14 00:11:29;;;;;;;7.67;5.27;;;;;;;;;;4973509;28;20450;-67
2022/10/14 00:13:56;;;;;;;7.00;6.27;;;;;;;;;;4972374;28;20971;-68
2022/10/14 00:16:27;;;;;;;6.97;6.20;;;;;;;;;;4970231;28;20501;-68
2022/10/14 00:18:53;;;;;;;5.70;5.20;;;;;;;;;;4972921;28;20449;-67
2022/10/14 00:21:19;;;;;;;5.63;5.20;;;;;;;;;;4973259;28;20442;-68
2022/10/14 00:23:45;;;;;;;7.50;7.00;;;;;;;;;;4972617;28;20949;-69
2022/10/14 00:26:19;;;;;;;14.77;6.43;;;;;;;;;;4972069;28;20441;-68
2022/10/14 00:28:45;;;;;;;6.43;5.93;;;;;;;;;;4973198;28;20430;-68
2022/10/14 00:31:11;;;;;;;6.97;5.40;;;;;;;;;;4972562;28;20448;-68
2022/10/14 00:33:37;;;;;;;8.03;5.50;;;;;;;;;;4970957;28;20449;-68
2022/10/14 00:36:04;;;;;;;6.60;6.13;;;;;;;;;;4971765;28;20481;-67
2022/10/14 00:38:31;;;;;;;7.57;6.77;;;;;;;;;;4973114;28;20434;-67
2022/10/14 00:40:57;;;;;;;7.20;6.60;;;;;;;;;;4973050;28;20453;-68
2022/10/14 00:43:24;;;;;;;6.67;6.10;;;;;;;;;;4970306;28;20441;-68
2022/10/14 00:45:50;;;;;;;10.90;7.13;;;;;;;;;;4972278;28;20457;-68
2022/10/14 00:48:17;;;;;;;7.17;6.47;;;;;;;;;;4972687;28;20465;-68
2022/10/14 00:50:44;;;;;;;7.30;5.80;;;;;;;;;;4972296;28;20442;-68
2022/10/14 00:53:11;;;;;;;8.93;6.67;;;;;;;;;;4971440;28;20938;-67
2022/10/14 00:55:41;;;;;;;9.60;6.57;;;;;;;;;;4971701;28;20477;-67
2022/10/14 00:58:07;;;;;;;7.30;6.03;;;;;;;;;;4970327;28;20449;-67
2022/10/14 01:00:33;;;;;;;7.60;6.27;;;;;;;;;;4970666;28;20461;-68
2022/10/14 01:02:59;;;;;;;7.10;6.23;;;;;;;;;;4969501;28;20481;-68
2022/10/14 01:05:30;;;;;;;7.33;5.70;;;;;;;;;;4971250;28;20848;-68
2022/10/14 01:08:09;;;;;;;8.37;6.10;;;;;;;;;;4971649;28;20449;-68
2022/10/14 01:10:48;;;;;;;8.47;7.33;;;;;;;;;;4972073;28;20469;-67
2022/10/14 01:13:22;;;;;;;13.53;6.23;;;;;;;;;;4971926;28;20960;-68
2022/10/14 01:15:48;;;;;;;9.13;6.57;;;;;;;;;;4971937;28;20488;-69
2022/10/14 01:18:14;;;;;;;6.30;5.90;;;;;;;;;;4970332;28;20437;-68
2022/10/14 01:20:42;;;;;;;5.63;5.13;;;;;;;;;;4972004;28;20449;-68
2022/10/14 01:23:27;;;;;;;8.33;6.20;;;;;;;;;;4972010;28;20442;-68
2022/10/14 01:26:06;;;;;;;5.93;5.53;;;;;;;;;;4970097;28;20446;-67
2022/10/14 01:28:50;;;;;;;5.80;5.40;;;;;;;;;;4970855;28;20930;-67
2022/10/14 01:31:21;;;;;;;6.50;5.90;;;;;;;;;;4970639;28;20442;-69
2022/10/14 01:33:50;;;;;;;6.97;5.97;;;;;;;;;;4970661;28;20446;-68
2022/10/14 01:36:25;;;;;;;6.77;6.37;;;;;;;;;;4970047;28;20536;-67
2022/10/14 01:39:06;;;;;;;8.13;6.20;;;;;;;;;;4970160;28;20425;-68
2022/10/14 01:41:35;;;;;;;5.67;5.30;;;;;;;;;;4972260;28;20437;-68
2022/10/14 01:44:06;;;;;;;7.23;5.60;;;;;;;;;;4970790;28;20438;-68
2022/10/14 01:46:34;;;;;;;20.00;6.00;;;;;;;;;;4971302;28;20442;-67
2022/10/14 01:49:03;;;;;;;5.93;5.43;;;;;;;;;;4970119;28;21003;-68
2022/10/14 01:51:33;;;;;;;11.23;4.80;;;;;;;;;;4971352;28;20441;-68
2022/10/14 01:54:04;;;;;;;6.27;5.00;;;;;;;;;;4970176;28;20481;-67
2022/10/14 01:56:32;;;;;;;4.90;4.70;;;;;;;;;;4970627;28;20572;-68
2022/10/14 01:58:58;;;;;;;5.20;4.80;;;;;;;;;;4970815;28;20442;-67
2022/10/14 02:01:24;;;;;;;6.00;4.20;;;;;;;;;;4970221;28;20504;-68
2022/10/14 02:03:50;;;;;;;4.93;4.57;;;;;;;;;;4970461;28;20919;-67
2022/10/14 02:06:20;;;;;;;4.83;4.43;;;;;;;;;;4970572;28;20449;-68
2022/10/14 02:09:01;;;;;;;7.40;5.43;;;;;;;;;;4969573;28;20703;-67
2022/10/14 02:11:28;;;;;;;6.03;5.20;;;;;;;;;;4971040;28;20461;-67
2022/10/14 02:14:13;;;;;;;9.60;4.80;;;;;;;;;;4971230;28;20501;-68
2022/10/14 02:16:39;;;;;;;5.40;4.70;;;;;;;;;;4970125;28;20489;-68
2022/10/14 02:19:18;;;;;;;7.40;4.40;;;;;;;;;;4969797;28;20797;-68
2022/10/14 02:21:57;;;;;;;5.00;4.60;;;;;;;;;;4971001;28;20434;-69
2022/10/14 02:24:23;;;;;;;5.90;5.40;;;;;;;;;;4970105;28;20880;-67
2022/10/14 02:26:50;;;;;;;5.67;5.17;;;;;;;;;;4970186;28;20521;-67
2022/10/14 02:29:18;;;;;;;5.43;5.13;;;;;;;;;;4969870;28;20446;-68
2022/10/14 02:31:45;;;;;;;5.80;5.10;;;;;;;;;;4970729;28;20457;-68
2022/10/14 02:34:12;;;;;;;11.77;6.20;;;;;;;;;;4970855;28;20797;-67
2022/10/14 02:36:38;;;;;;;6.13;4.23;;;;;;;;;;4969882;28;20921;-67
2022/10/14 02:39:06;;;;;;;5.50;5.07;;;;;;;;;;4970797;28;20430;-68
2022/10/14 02:41:33;;;;;;;4.17;3.87;;;;;;;;;;4970450;28;20438;-67
2022/10/14 02:44:00;;;;;;;6.80;4.00;;;;;;;;;;4969398;28;20445;-67
2022/10/14 02:46:27;;;;;;;4.30;4.00;;;;;;;;;;4969724;28;20532;-67
2022/10/14 02:48:53;;;;;;;4.70;4.17;;;;;;;;;;4969794;28;20430;-68
2022/10/14 02:51:19;;;;;;;4.60;4.30;;;;;;;;;;4970548;28;20949;-68
2022/10/14 02:53:45;;;;;;;6.83;4.57;;;;;;;;;;4970661;28;20513;-68
2022/10/14 02:56:12;;;;;;;9.53;5.57;;;;;;;;;;4969736;28;20521;-67
2022/10/14 02:58:38;;;;;;;4.60;4.30;;;;;;;;;;4970330;28;20462;-67
2022/10/14 03:01:04;;;;;;;4.87;4.43;;;;;;;;;;4969637;28;20476;-67
2022/10/14 03:03:30;;;;;;;4.10;3.90;;;;;;;;;;4969133;28;20482;-67
2022/10/14 03:05:56;;;;;;;5.00;4.40;;;;;;;;;;4970136;28;20441;-67
2022/10/14 03:08:22;;;;;;;9.23;4.80;;;;;;;;;;4970336;28;20820;-67
2022/10/14 03:10:48;;;;;;;4.93;4.53;;;;;;;;;;4969372;28;20470;-67
2022/10/14 03:13:14;;;;;;;15.73;4.37;;;;;;;;;;4969589;28;20469;-68
2022/10/14 03:15:40;;;;;;;7.00;4.67;;;;;;;;;;4969673;28;20485;-68
2022/10/14 03:18:06;;;;;;;4.17;3.80;;;;;;;;;;4970016;28;20422;-68
2022/10/14 03:20:32;;;;;;;4.47;4.17;;;;;;;;;;4969321;28;20496;-68
2022/10/14 03:22:58;;;;;;;8.17;3.83;;;;;;;;;;4969866;28;20448;-68
2022/10/14 03:25:24;;;;;;;3.70;3.40;;;;;;;;;;4970022;28;20417;-67
2022/10/14 03:27:50;;;;;;;4.53;4.13;;;;;;;;;;4969615;28;20441;-68
2022/10/14 03:30:16;;;;;;;4.80;4.37;;;;;;;;;;4969207;28;20441;-67
2022/10/14 03:32:42;;;;;;;4.50;3.97;;;;;;;;;;4968902;28;20527;-68
2022/10/14 03:35:09;;;;;;;7.30;3.20;;;;;;;;;;4969598;28;20563;-67
2022/10/14 03:37:35;;;;;;;4.63;3.40;;;;;;;;;;4968932;28;20544;-67
2022/10/14 03:40:01;;;;;;;4.40;4.00;;;;;;;;;;4970076;28;20430;-68
2022/10/14 03:42:27;;;;;;;6.97;3.50;;;;;;;;;;4969339;28;20442;-68
2022/10/14 03:44:54;;;;;;;3.63;3.43;;;;;;;;;;4969227;28;20490;-67
2022/10/14 03:47:20;;;;;;;3.50;3.40;;;;;;;;;;4967744;28;20516;-67
2022/10/14 03:49:46;;;;;;;5.93;4.10;;;;;;;;;;4970876;28;20444;-67
2022/10/14 03:52:12;;;;;;;4.37;4.07;;;;;;;;;;4973418;28;20433;-68
2022/10/14 03:54:38;;;;;;;4.50;4.10;;;;;;;;;;4972898;28;20934;-68
2022/10/14 03:57:04;;;;;;;3.77;3.57;;;;;;;;;;4973167;28;21000;-67
2022/10/14 03:59:30;;;;;;;4.60;3.43;;;;;;;;;;4972750;28;20820;-67
2022/10/14 04:01:56;;;;;;;5.63;3.87;;;;;;;;;;4971047;28;20513;-67
2022/10/14 04:04:22;;;;;;;4.47;3.07;;;;;;;;;;4971048;28;20782;-68
2022/10/14 04:06:48;;;;;;;3.00;2.90;;;;;;;;;;4972506;28;20467;-67
2022/10/14 04:09:14;;;;;;;6.80;3.10;;;;;;;;;;4971854;28;20481;-68
2022/10/14 04:11:40;;;;;;;6.13;3.10;;;;;;;;;;4973036;28;20442;-68
2022/10/14 04:14:06;;;;;;;4.13;2.83;;;;;;;;;;4972790;28;20434;-68
2022/10/14 04:16:32;;;;;;;3.43;2.73;;;;;;;;;;4971886;28;20576;-68
2022/10/14 04:18:58;;;;;;;5.33;3.13;;;;;;;;;;4971924;28;20430;-67
2022/10/14 04:21:24;;;;;;;4.10;3.07;;;;;;;;;;4972304;28;20446;-68
2022/10/14 04:23:50;;;;;;;3.13;2.20;;;;;;;;;;4972493;28;20426;-67
2022/10/14 04:26:16;;;;;;;3.10;3.00;;;;;;;;;;4972110;28;20847;-67
2022/10/14 04:28:42;;;;;;;4.00;3.20;;;;;;;;;;4973396;28;20878;-67
2022/10/14 04:31:09;;;;;;;2.90;2.80;;;;;;;;;;4972157;28;20930;-68
2022/10/14 04:33:35;;;;;;;4.27;3.77;;;;;;;;;;4971384;28;20806;-67
2022/10/14 04:36:02;;;;;;;5.00;3.83;;;;;;;;;;4970785;28;20856;-67
2022/10/14 04:38:30;;;;;;;6.17;3.07;;;;;;;;;;4971972;28;20942;-67
2022/10/14 04:40:56;;;;;;;3.10;3.00;;;;;;;;;;4972894;28;20519;-68
2022/10/14 04:43:22;;;;;;;3.70;3.60;;;;;;;;;;4972478;28;21463;-68
2022/10/14 04:45:48;;;;;;;3.97;3.67;;;;;;;;;;4971046;28;20453;-68
2022/10/14 04:48:15;;;;;;;3.23;3.13;;;;;;;;;;4972331;28;20444;-68
2022/10/14 04:50:41;;;;;;;5.00;3.07;;;;;;;;;;4971327;28;20969;-67
2022/10/14 04:53:08;;;;;;;6.23;3.13;;;;;;;;;;4971974;28;20430;-67
2022/10/14 04:55:34;;;;;;;4.77;2.87;;;;;;;;;;4971391;28;20581;-68
2022/10/14 04:58:00;;;;;;;14.13;4.67;;;;;;;;;;4972564;28;20497;-67
2022/10/14 05:00:26;;;;;;;11.53;3.33;;;;;;;;;;4968779;28;20426;-68
2022/10/14 05:02:52;;;;;;;8.33;3.77;;;;;;;;;;4971297;28;20446;-67
2022/10/14 05:05:18;;;;;;;10.30;3.57;;;;;;;;;;4970269;28;20469;-67
2022/10/14 05:07:44;;;;;;;8.33;3.83;;;;;;;;;;4971026;28;20430;-68
2022/10/14 05:10:10;;;;;;;5.70;4.07;;;;;;;;;;4970671;28;20477;-68
2022/10/14 05:12:37;;;;;;;9.77;4.10;;;;;;;;;;4972282;28;20437;-67
2022/10/14 05:15:04;;;;;;;7.30;3.33;;;;;;;;;;4972131;28;20426;-67
2022/10/14 05:17:30;;;;;;;7.13;3.80;;;;;;;;;;4969595;28;20472;-68
2022/10/14 05:19:56;;;;;;;4.07;3.97;;;;;;;;;;4971238;28;20511;-67
2022/10/14 05:22:22;;;;;;;4.00;3.90;;;;;;;;;;4970596;28;20946;-68
2022/10/14 05:24:49;;;;;;;5.17;4.83;;;;;;;;;;4969785;28;20442;-67
2022/10/14 05:27:15;;;;;;;6.97;4.90;;;;;;;;;;4969204;28;20434;-67
2022/10/14 05:29:41;;;;;;;12.13;4.53;;;;;;;;;;4969497;28;20965;-67
2022/10/14 05:32:07;;;;;;;5.87;5.43;;;;;;;;;;4971495;28;20434;-66
2022/10/14 05:34:33;;;;;;;4.43;4.13;;;;;;;;;;4971281;28;20449;-67
2022/10/14 05:36:59;;;;;;;7.60;4.60;;;;;;;;;;4970402;28;20509;-67
2022/10/14 05:39:25;;;;;;;6.63;6.00;;;;;;;;;;4971647;28;20462;-67
2022/10/14 05:41:51;;;;;;;8.27;5.03;;;;;;;;;;4970384;28;20434;-68
2022/10/14 05:44:17;;;;;;;5.00;4.53;;;;;;;;;;4971808;28;20433;-67
2022/10/14 05:46:43;;;;;;;4.50;4.17;;;;;;;;;;4970757;28;20434;-68
2022/10/14 05:49:10;;;;;;;4.60;4.20;;;;;;;;;;4970024;28;20528;-68
2022/10/14 05:51:36;;;;;;;9.97;5.10;;;;;;;;;;4970608;28;20541;-67
2022/10/14 05:54:02;;;;;;;6.63;4.33;;;;;;;;;;4970710;28;20529;-68
2022/10/14 05:56:28;;;;;;;18.90;4.80;;;;;;;;;;4969551;28;20576;-68
2022/10/14 05:58:54;;;;;;;5.60;3.97;;;;;;;;;;4970176;28;20973;-69
2022/10/14 06:01:20;;;;;;;4.13;3.83;;;;;;;;;;4970513;28;20425;-67
2022/10/14 06:03:49;;;;;;;4.10;3.80;;;;;;;;;;4969690;28;20457;-67
2022/10/14 06:06:15;;;;;;;4.97;4.17;;;;;;;;;;4970393;28;20446;-68
2022/10/14 06:08:41;;;;;;;4.07;3.87;;;;;;;;;;4969840;28;20437;-69
2022/10/14 06:11:08;;;;;;;9.73;3.90;;;;;;;;;;4970094;28;20516;-68
2022/10/14 06:13:34;;;;;;;5.70;4.53;;;;;;;;;;4970793;28;20449;-67
2022/10/14 06:16:07;;;;;;;9.60;4.67;;;;;;;;;;4969539;28;20206;-70
2022/10/14 06:18:34;;;;;;;4.63;3.60;;;;;;;;;;4970324;28;20430;-68
2022/10/14 06:21:00;;;;;;;12.50;3.93;;;;;;;;;;4970700;28;20930;-69
2022/10/14 06:23:26;;;;;;;7.63;5.40;;;;;;;;;;4969969;28;20552;-69
2022/10/14 06:25:52;;;;;;;6.70;4.87;;;;;;;;;;4969160;28;20812;-68
2022/10/14 06:28:18;;;;;;;5.10;3.33;;;;;;;;;;4971178;28;20433;-70
2022/10/14 06:30:54;;;;;;;4.73;3.90;;;;;;;;;;4971215;28;20433;-69
2022/10/14 06:33:21;;;;;;;13.37;3.60;;;;;;;;;;4969615;28;20532;-69
2022/10/14 06:35:47;;;;;;;3.73;3.43;;;;;;;;;;4969108;28;20492;-67
2022/10/14 06:38:13;;;;;;;4.07;3.80;;;;;;;;;;4970473;28;20636;-68
2022/10/14 06:40:39;;;;;;;4.20;3.00;;;;;;;;;;4969652;28;20440;-68
2022/10/14 06:43:05;;;;;;;5.30;4.10;;;;;;;;;;4970741;28;21521;-68
2022/10/14 06:45:31;;;;;;;11.30;3.87;;;;;;;;;;4970004;28;20442;-68
2022/10/14 06:47:57;;;;;;;3.10;2.60;;;;;;;;;;4970908;28;20441;-68
2022/10/14 06:50:23;;;;;;;3.77;3.67;;;;;;;;;;4969957;28;20452;-68
2022/10/14 06:52:49;;;;;;;2.90;2.80;;;;;;;;;;4965971;28;20950;-69
2022/10/14 06:55:16;;;;;;;4.80;4.00;;;;;;;;;;4905916;28;20572;-68
2022/10/14 06:57:42;;;;;;;11.70;3.07;;;;;;;;;;4969576;28;20955;-67
2022/10/14 07:00:08;;;;;;;5.03;3.90;;;;;;;;;;4969247;28;20430;-67
2022/10/14 07:02:34;;;;;;;3.50;3.30;;;;;;;;;;4969802;28;20464;-67
2022/10/14 07:05:02;;;;;;;6.63;3.57;;;;;;;;;;4969548;28;20430;-67
2022/10/14 07:07:28;;;;;;;3.40;3.10;;;;;;;;;;4966892;28;20927;-68
2022/10/14 07:09:54;;;;;;;3.83;3.53;;;;;;;;;;4966859;28;20496;-68
2022/10/14 07:12:20;;;;;;;4.27;3.23;;;;;;;;;;4968793;28;20447;-68
2022/10/14 07:14:46;;;;;;;6.30;2.87;;;;;;;;;;4969643;28;20453;-68
2022/10/14 07:17:12;;;;;;;2.13;2.03;;;;;;;;;;4967499;28;20516;-68
2022/10/14 07:19:38;;;;;;;4.00;2.80;;;;;;;;;;4969462;28;21001;-67
2022/10/14 07:22:04;;;;;;;3.33;2.97;;;;;;;;;;4967944;28;20477;-67
2022/10/14 07:24:30;;;;;;;7.10;3.27;;;;;;;;;;4971540;28;20433;-68
2022/10/14 07:26:56;;;;;;;2.87;2.77;;;;;;;;;;4973595;28;20990;-68
2022/10/14 07:29:22;;;;;;;3.97;3.87;;;;;;;;;;4972581;28;20516;-68
2022/10/14 07:31:48;;;;;;;4.30;3.00;;;;;;;;;;4972248;28;20842;-68
2022/10/14 07:34:14;;;;;;;3.17;2.90;;;;;;;;;;4973675;28;20437;-68
2022/10/14 07:36:40;;;;;;;21.87;4.47;;;;;;;;;;4972163;28;20493;-68
2022/10/14 07:39:06;;;;;;;6.30;3.37;;;;;;;;;;4972870;28;20457;-68
2022/10/14 07:41:32;;;;;;;6.60;3.13;;;;;;;;;;4969608;28;20474;-67
2022/10/14 07:44:04;;;;;;;11.47;4.13;;;;;;;;;;4972733;28;20425;-68
2022/10/14 07:46:32;;;;;;;11.87;5.67;;;;;;;;;;4972414;28;20481;-68
2022/10/14 07:48:59;;;;;;;7.00;2.90;;;;;;;;;;4974664;28;20430;-68
2022/10/14 07:51:26;;;;;;;4.10;3.70;;;;;;;;;;4971327;28;20477;-67
2022/10/14 07:53:52;;;;;;;4.13;3.83;;;;;;;;;;4970233;28;20437;-69
2022/10/14 07:56:18;;;;;;;3.87;3.23;;;;;;;;;;4971749;28;20485;-68
2022/10/14 07:58:45;;;;;;;6.33;4.57;;;;;;;;;;4972787;28;20442;-67
2022/10/14 08:01:11;;;;;;;7.77;3.20;;;;;;;;;;4971002;28;20967;-67
2022/10/14 08:03:37;;;;;;;3.30;3.10;;;;;;;;;;4972669;28;20430;-67
2022/10/14 08:06:04;;;;;;;5.90;3.53;;;;;;;;;;4972465;28;20430;-67
2022/10/14 08:08:30;;;;;;;3.20;2.97;;;;;;;;;;4972987;28;20430;-68
2022/10/14 08:11:04;;;;;;;4.53;3.00;;;;;;;;;;4972256;28;20517;-69
2022/10/14 08:13:30;;;;;;;10.73;3.57;;;;;;;;;;4969009;28;20444;-68
2022/10/14 08:15:56;;;;;;;8.73;3.40;;;;;;;;;;4970942;28;20850;-67
2022/10/14 08:18:24;;;;;;;3.60;3.30;;;;;;;;;;4972916;28;20426;-67
2022/10/14 08:20:51;;;;;;;10.20;3.87;;;;;;;;;;4969774;28;20427;-68
2022/10/14 08:23:17;;;;;;;10.73;3.93;;;;;;;;;;4971886;28;21696;-69
2022/10/14 08:25:43;;;;;;;6.43;4.30;;;;;;;;;;4971866;28;20517;-69
2022/10/14 08:28:09;;;;;;;7.00;3.47;;;;;;;;;;4972463;28;20533;-70
2022/10/14 08:30:35;;;;;;;5.47;3.30;;;;;;;;;;4971784;28;20488;-69
2022/10/14 08:33:01;;;;;;;3.90;3.57;;;;;;;;;;4970667;28;20450;-69
2022/10/14 08:35:27;;;;;;;10.23;3.50;;;;;;;;;;4971944;28;20859;-70
2022/10/14 08:37:57;;;;;;;15.60;4.90;;;;;;;;;;4972375;28;20517;-67
2022/10/14 08:40:23;;;;;;;6.20;3.80;;;;;;;;;;4972345;28;20779;-68
2022/10/14 08:43:14;;;;;;;5.17;4.33;;;;;;;;;;4970824;28;20875;-69
2022/10/14 08:45:47;;;;;;;12.67;3.90;;;;;;;;;;4970403;28;20971;-68
2022/10/14 08:48:19;;;;;;;5.70;5.30;;;;;;;;;;4972143;28;20436;-68
2022/10/14 08:50:45;;;;;;;16.80;4.33;;;;;;;;;;4972338;28;20978;-67
2022/10/14 08:53:29;;;;;;;5.70;3.80;;;;;;;;;;4970899;28;20548;-68
2022/10/14 08:55:59;;;;;;;9.60;4.50;;;;;;;;;;4970252;28;20485;-68
2022/10/14 08:58:32;;;;;;;3.77;3.60;;;;;;;;;;4972756;28;20481;-68
2022/10/14 09:01:01;;;;;;;2.77;2.57;;;;;;;;;;4985602;28;20453;-68
2022/10/14 09:03:32;;;;;;;4.47;2.50;;;;;;;;;;4971886;28;20426;-69
2022/10/14 09:06:02;;;;;;;3.77;2.23;;;;;;;;;;4970876;28;20447;-69
2022/10/14 09:08:32;;;;;;;4.00;2.90;;;;;;;;;;4972455;28;20477;-68
2022/10/14 09:10:59;;;;;;;4.50;2.70;;;;;;;;;;4971676;28;20488;-70
2022/10/14 09:13:36;;;;;;;2.00;1.90;;;;;;;;;;4972279;28;20517;-68
2022/10/14 09:16:05;;;;;;;2.00;2.00;;;;;;;;;;4971038;28;20492;-70
2022/10/14 09:18:39;;;;;;;2.10;1.97;;;;;;;;;;4972212;28;20516;-68
2022/10/14 09:21:26;;;;;;;2.50;1.83;;;;;;;;;;4971372;28;20506;-67
2022/10/14 09:23:56;;;;;;;1.73;1.60;;;;;;;;;;4969947;28;20466;-67
2022/10/14 09:26:22;;;;;;;3.40;1.90;;;;;;;;;;4970748;28;20438;-67
2022/10/14 09:28:53;;;;;;;3.97;1.90;;;;;;;;;;4971250;28;20922;-67
2022/10/14 09:31:19;;;;;;;7.60;1.60;;;;;;;;;;4971794;28;20442;-68
2022/10/14 09:33:45;;;;;;;2.20;2.10;;;;;;;;;;4971956;28;20433;-68
2022/10/14 09:36:15;;;;;;;1.87;1.73;;;;;;;;;;4970960;28;20517;-69
2022/10/14 09:38:42;;;;;;;2.07;1.97;;;;;;;;;;4971104;28;21006;-69
2022/10/14 09:41:10;;;;;;;6.33;2.00;;;;;;;;;;4971722;28;20434;-67
2022/10/14 09:43:36;;;;;;;4.20;1.80;;;;;;;;;;4970602;28;20426;-68
2022/10/14 09:46:06;;;;;;;2.00;1.90;;;;;;;;;;4971286;28;20477;-68
2022/10/14 09:48:43;;;;;;;6.77;1.20;;;;;;;;;;4970122;28;20461;-69
2022/10/14 09:51:25;;;;;;;1.23;1.23;;;;;;;;;;4970129;28;20496;-69
2022/10/14 09:53:52;;;;;;;2.73;1.60;;;;;;;;;;4971521;28;20445;-64
2022/10/14 09:56:29;;;;;;;9.23;2.50;;;;;;;;;;4971497;28;20489;-69
2022/10/14 09:58:56;;;;;;;2.17;2.00;;;;;;;;;;4970841;28;20497;-68
2022/10/14 10:01:40;;;;;;;5.40;1.93;;;;;;;;;;4969611;28;20508;-67
2022/10/14 10:04:24;;;;;;;2.40;1.77;;;;;;;;;;4970734;28;20934;-69
2022/10/14 10:06:52;;;;;;;2.10;2.10;;;;;;;;;;4970305;28;20434;-70
2022/10/14 10:09:18;;;;;;;2.80;1.57;;;;;;;;;;4971243;28;20612;-69
2022/10/14 10:11:44;;;;;;;1.60;1.60;;;;;;;;;;4971486;28;20430;-70
2022/10/14 10:14:20;;;;;;;2.23;2.13;;;;;;;;;;4970894;28;20445;-70
2022/10/14 10:16:47;;;;;;;3.40;3.17;;;;;;;;;;4967787;28;20478;-69
2022/10/14 10:19:33;;;;;;;2.30;2.20;;;;;;;;;;4967197;28;20814;-69
2022/10/14 10:22:16;;;;;;;3.60;3.40;;;;;;;;;;4969911;28;20430;-69
2022/10/14 10:24:43;;;;;;;1.70;1.70;;;;;;;;;;4969126;28;20859;-69
2022/10/14 10:27:25;;;;;;;1.70;1.60;;;;;;;;;;4967010;28;20435;-69
2022/10/14 10:29:51;;;;;;;4.93;1.30;;;;;;;;;;4970492;28;20431;-69
2022/10/14 10:32:29;;;;;;;1.80;1.70;;;;;;;;;;4968284;28;20446;-68
2022/10/14 10:35:07;;;;;;;7.40;2.97;;;;;;;;;;4970297;28;20433;-70
2022/10/14 10:37:36;;;;;;;1.73;1.63;;;;;;;;;;4966843;28;20454;-70
2022/10/14 10:40:08;;;;;;;1.53;1.43;;;;;;;;;;4968796;28;20810;-69
2022/10/14 10:42:39;;;;;;;2.30;2.20;;;;;;;;;;4971047;28;20544;-69
2022/10/14 10:45:14;;;;;;;1.70;1.70;;;;;;;;;;4969275;28;20434;-67
2022/10/14 10:48:06;;;;;;;2.20;1.60;;;;;;;;;;4969530;28;20487;-69
2022/10/14 10:50:48;;;;;;;2.87;2.77;;;;;;;;;;4971071;28;20497;-69
2022/10/14 10:53:14;;;;;;;1.70;1.60;;;;;;;;;;4971046;28;20432;-68
2022/10/14 10:55:43;;;;;;;4.57;2.27;;;;;;;;;;4969063;28;20466;-67
2022/10/14 10:58:26;;;;;;;4.27;1.80;;;;;;;;;;4970714;28;20972;-67
2022/10/14 11:01:07;;;;;;;1.70;1.70;;;;;;;;;;4974504;28;20441;-67
2022/10/14 11:03:47;;;;;;;1.37;1.37;;;;;;;;;;4974851;28;20959;-67
2022/10/14 11:12:16;;;;;;;1.93;1.83;;;;;;;;;;4975257;28;20992;-67
2022/10/14 11:14:56;;;;;;;1.10;1.10;;;;;;;;;;4974202;28;20934;-67
2022/10/14 11:17:22;;;;;;;6.80;1.33;;;;;;;;;;4973976;28;20965;-67
2022/10/14 11:20:07;;;;;;;1.60;1.40;;;;;;;;;;4973651;28;20495;-68
2022/10/14 11:22:37;;;;;;;1.90;1.90;;;;;;;;;;4974650;28;20417;-67
2022/10/14 11:25:43;;;;;;;3.33;2.10;;;;;;;;;;4973661;28;20425;-67
2022/10/14 11:28:21;;;;;;;1.73;1.63;;;;;;;;;;4914469;29;20475;-68
2022/10/14 11:30:52;;;;;;;1.23;0.90;;;;;;;;;;4898582;29;20456;-68
2022/10/14 11:33:29;;;;;;;1.30;1.30;;;;;;;;;;4949196;28;20528;-69
2022/10/14 11:36:05;;;;;;;1.33;1.23;;;;;;;;;;4971110;28;21023;-68
2022/10/14 11:38:31;;;;;;;1.53;1.43;;;;;;;;;;4974003;28;20506;-67
2022/10/14 11:40:57;;;;;;;17.53;5.90;;;;;;;;;;4974302;28;20466;-68
2022/10/14 11:43:41;;;;;;;4.00;2.90;;;;;;;;;;4972795;28;20942;-69
2022/10/14 11:46:08;;;;;;;1.57;1.23;;;;;;;;;;4971038;28;20448;-67
2022/10/14 11:48:42;;;;;;;2.13;1.73;;;;;;;;;;4973109;28;20425;-68
2022/10/14 11:51:08;;;;;;;0.90;0.90;;;;;;;;;;4972950;28;20453;-70
2022/10/14 11:53:54;;;;;;;3.37;1.40;;;;;;;;;;4973525;28;20426;-67
2022/10/14 11:56:32;;;;;;;1.20;1.20;;;;;;;;;;4971165;28;20485;-67
2022/10/14 11:59:01;;;;;;;3.33;1.20;;;;;;;;;;4971078;28;20486;-69
2022/10/14 12:01:29;;;;;;;4.67;1.40;;;;;;;;;;4972081;28;20528;-69
2022/10/14 12:04:10;;;;;;;2.93;2.17;;;;;;;;;;4973937;28;20426;-68
2022/10/14 12:06:47;;;;;;;1.90;1.37;;;;;;;;;;4972980;28;20516;-67
2022/10/14 12:09:21;;;;;;;5.70;1.60;;;;;;;;;;4972811;28;20472;-70
2022/10/14 12:11:52;;;;;;;1.00;1.00;;;;;;;;;;4971920;28;20497;-68
2022/10/14 12:14:18;;;;;;;4.17;1.20;;;;;;;;;;4971723;28;20422;-68
2022/10/14 12:16:47;;;;;;;2.60;1.50;;;;;;;;;;4972390;28;20481;-68
2022/10/14 12:19:14;;;;;;;1.50;1.40;;;;;;;;;;4972334;28;20453;-68
2022/10/14 12:21:52;;;;;;;1.50;1.40;;;;;;;;;;4973659;28;20446;-68
2022/10/14 12:24:20;;;;;;;1.43;1.33;;;;;;;;;;4971099;28;20453;-70
2022/10/14 12:26:56;;;;;;;2.50;1.03;;;;;;;;;;4972535;28;20422;-70
2022/10/14 12:29:24;;;;;;;1.43;1.43;;;;;;;;;;4972307;28;20437;-70
2022/10/14 12:32:06;;;;;;;0.90;0.80;;;;;;;;;;4971871;28;20532;-68
2022/10/14 12:34:39;;;;;;;0.60;0.60;;;;;;;;;;4972495;28;20430;-68
2022/10/14 12:37:23;;;;;;;0.80;0.80;;;;;;;;;;4971802;28;20489;-69
2022/10/14 12:40:12;;;;;;;1.33;0.60;;;;;;;;;;4972038;28;20438;-68
2022/10/14 12:42:42;;;;;;;0.67;0.67;;;;;;;;;;4964248;28;20437;-69
2022/10/14 12:45:19;;;;;;;1.33;1.30;;;;;;;;;;4971637;28;20426;-69
2022/10/14 12:47:45;;;;;;;0.73;0.73;;;;;;;;;;4973001;28;20509;-69
2022/10/14 12:50:14;;;;;;;0.70;0.70;;;;;;;;;;4972274;28;20950;-68
2022/10/14 12:52:44;;;;;;;1.57;1.57;;;;;;;;;;4971643;28;20434;-68
2022/10/14 12:55:22;;;;;;;1.00;1.00;;;;;;;;;;4971142;28;20442;-68
2022/10/14 12:58:01;;;;;;;3.43;1.90;;;;;;;;;;4972785;28;20437;-70
2022/10/14 13:00:28;;;;;;;2.13;2.13;;;;;;;;;;4971997;28;20433;-68
2022/10/14 13:02:55;;;;;;;0.70;0.70;;;;;;;;;;4971658;28;20602;-69
2022/10/14 13:05:35;;;;;;;3.27;1.00;;;;;;;;;;4971604;28;20438;-68
2022/10/14 13:08:10;;;;;;;1.20;1.20;;;;;;;;;;4971244;28;20537;-69
2022/10/14 13:10:39;;;;;;;11.53;0.93;;;;;;;;;;4971347;28;21036;-69
2022/10/14 13:13:24;;;;;;;4.47;0.77;;;;;;;;;;4971292;28;20441;-70
2022/10/14 13:15:51;;;;;;;0.60;0.60;;;;;;;;;;4971195;28;20465;-69
2022/10/14 13:18:34;;;;;;;1.37;1.10;;;;;;;;;;4971558;28;20449;-69
2022/10/14 13:21:00;;;;;;;0.90;0.90;;;;;;;;;;4970776;28;20425;-68
2022/10/14 13:23:34;;;;;;;0.80;0.80;;;;;;;;;;4970795;28;20446;-70
2022/10/14 13:26:10;;;;;;;0.87;0.87;;;;;;;;;;4969388;28;20516;-67
2022/10/14 13:28:41;;;;;;;0.97;0.90;;;;;;;;;;4971379;28;20446;-67
2022/10/14 13:31:21;;;;;;;1.50;1.40;;;;;;;;;;4970541;28;20807;-69
2022/10/14 13:33:49;;;;;;;0.87;0.87;;;;;;;;;;4971023;28;20461;-68
2022/10/14 13:36:15;;;;;;;1.43;1.33;;;;;;;;;;4971808;28;20555;-70
2022/10/14 13:38:44;;;;;;;0.80;0.80;;;;;;;;;;4971466;28;21039;-70
2022/10/14 13:41:15;;;;;;;0.80;0.80;;;;;;;;;;4971544;28;20418;-69
2022/10/14 13:43:42;;;;;;;1.93;1.07;;;;;;;;;;4971186;28;20450;-70
2022/10/14 13:46:08;;;;;;;0.47;0.47;;;;;;;;;;4970734;28;20433;-68
2022/10/14 13:48:36;;;;;;;0.87;0.87;;;;;;;;;;4970096;28;20950;-70
2022/10/14 13:51:12;;;;;;;1.03;1.03;;;;;;;;;;4971984;28;20421;-68
2022/10/14 13:53:48;;;;;;;0.80;0.80;;;;;;;;;;4970887;28;20457;-70
2022/10/14 13:56:20;;;;;;;2.20;0.80;;;;;;;;;;4970048;28;21011;-69
2022/10/14 13:58:46;;;;;;;2.00;1.83;;;;;;;;;;4969857;28;20429;-70
2022/10/14 14:01:13;;;;;;;1.53;1.10;;;;;;;;;;4971163;28;20517;-69
2022/10/14 14:03:43;;;;;;;4.73;0.80;;;;;;;;;;4971118;28;20541;-70
2022/10/14 14:06:13;;;;;;;1.00;1.00;;;;;;;;;;4970517;28;20444;-69
2022/10/14 14:08:54;;;;;;;1.73;0.77;;;;;;;;;;4969931;28;20799;-69
2022/10/14 14:11:22;;;;;;;2.10;1.20;;;;;;;;;;4971567;28;20448;-70
2022/10/14 14:13:54;;;;;;;1.00;1.00;;;;;;;;;;4971082;28;20454;-68
2022/10/14 14:16:21;;;;;;;7.87;0.70;;;;;;;;;;4970244;28;20569;-70
2022/10/14 14:18:48;;;;;;;0.97;0.97;;;;;;;;;;4970868;28;20791;-68
2022/10/14 14:21:14;;;;;;;3.93;0.97;;;;;;;;;;4971212;28;20480;-70
2022/10/14 14:23:50;;;;;;;1.33;0.80;;;;;;;;;;4969122;28;20488;-70
2022/10/14 14:26:17;;;;;;;1.53;1.53;;;;;;;;;;4970324;28;20485;-70
2022/10/14 14:28:45;;;;;;;1.20;1.20;;;;;;;;;;4970394;28;20450;-69
2022/10/14 14:31:14;;;;;;;0.97;0.97;;;;;;;;;;4969187;28;20434;-68
2022/10/14 14:33:41;;;;;;;0.90;0.90;;;;;;;;;;4970998;28;20422;-69
2022/10/14 14:36:12;;;;;;;6.70;5.07;;;;;;;;;;4968492;28;20469;-69
2022/10/14 14:38:45;;;;;;;1.40;1.40;;;;;;;;;;4969232;28;20438;-70
2022/10/14 14:41:24;;;;;;;1.13;1.13;;;;;;;;;;4970325;28;20518;-70
2022/10/14 14:43:51;;;;;;;0.80;0.80;;;;;;;;;;4970883;28;21112;-69
2022/10/14 14:46:24;;;;;;;0.90;0.90;;;;;;;;;;4968323;28;20462;-69
2022/10/14 14:48:54;;;;;;;0.50;0.50;;;;;;;;;;4969403;28;20807;-70
2022/10/14 14:51:20;;;;;;;0.60;0.60;;;;;;;;;;4969332;28;20425;-68
2022/10/14 14:53:53;;;;;;;0.60;0.60;;;;;;;;;;4970293;28;20764;-69
2022/10/14 14:56:24;;;;;;;0.90;0.90;;;;;;;;;;4970109;28;20508;-68
2022/10/14 14:58:52;;;;;;;0.50;0.50;;;;;;;;;;4969355;28;20421;-69
2022/10/14 15:01:36;;;;;;;0.87;0.87;;;;;;;;;;4969646;28;20522;-68
2022/10/14 15:04:07;;;;;;;0.80;0.80;;;;;;;;;;4970228;28;20429;-68